createdAt,value
2023-05-18T00:00:31.539Z,13.60
2023-05-18T00:02:58.603Z,13.60
2023-05-18T00:05:25.652Z,13.60
2023-05-18T00:07:53.342Z,13.60
2023-05-18T00:10:20.512Z,13.50
2023-05-18T00:12:47.763Z,13.50
2023-05-18T00:15:14.712Z,13.50
2023-05-18T00:17:42.695Z,13.50
2023-05-18T00:20:10.546Z,13.60
2023-05-18T00:22:39.303Z,13.50
2023-05-18T00:25:06.414Z,13.50
2023-05-18T00:27:33.332Z,13.50
2023-05-18T00:30:00.286Z,13.50
2023-05-18T00:32:27.215Z,13.50
2023-05-18T00:34:54.197Z,13.60
2023-05-18T00:37:21.435Z,13.60
2023-05-18T00:39:48.395Z,13.60
2023-05-18T00:42:15.503Z,13.60
2023-05-18T00:44:42.526Z,13.60
2023-05-18T00:47:09.641Z,13.60
2023-05-18T00:49:36.625Z,13.60
2023-05-18T00:52:05.495Z,13.60
2023-05-18T00:54:34.529Z,13.60
2023-05-18T00:57:02.246Z,13.60
2023-05-18T00:59:30.766Z,13.50
2023-05-18T01:01:58.439Z,13.60
2023-05-18T01:04:26.031Z,13.60
2023-05-18T01:06:56.582Z,13.60
2023-05-18T01:09:23.813Z,13.50
2023-05-18T01:11:53.874Z,13.50
2023-05-18T01:14:41.537Z,13.50
2023-05-18T01:17:40.486Z,13.50
2023-05-18T01:20:30.046Z,13.50
2023-05-18T01:23:20.721Z,13.50
2023-05-18T01:26:12.139Z,13.50
2023-05-18T01:28:39.714Z,13.50
2023-05-18T01:31:06.723Z,13.40
2023-05-18T01:33:33.660Z,13.40
2023-05-18T01:36:00.584Z,13.40
2023-05-18T01:38:28.797Z,13.50
2023-05-18T01:41:09.617Z,13.40
2023-05-18T01:43:52.458Z,13.40
2023-05-18T01:46:48.213Z,13.50
2023-05-18T01:49:31.612Z,13.40
2023-05-18T01:52:10.396Z,13.40
2023-05-18T01:54:41.782Z,13.30
2023-05-18T01:57:10.039Z,13.30
2023-05-18T01:59:38.799Z,13.30
2023-05-18T02:02:06.352Z,13.30
2023-05-18T02:04:35.266Z,13.30
2023-05-18T02:07:02.180Z,13.30
2023-05-18T02:09:29.110Z,13.30
2023-05-18T02:11:56.080Z,13.30
2023-05-18T02:14:22.964Z,13.40
2023-05-18T02:16:53.362Z,13.40
2023-05-18T02:19:21.188Z,13.30
2023-05-18T02:21:48.374Z,13.20
2023-05-18T02:24:15.353Z,13.20
2023-05-18T02:26:42.428Z,13.30
2023-05-18T02:29:12.154Z,13.30
2023-05-18T02:31:39.320Z,13.20
2023-05-18T02:34:06.453Z,13.30
2023-05-18T02:36:40.227Z,13.30
2023-05-18T02:39:07.938Z,13.30
2023-05-18T02:41:38.616Z,13.30
2023-05-18T02:44:05.921Z,13.30
2023-05-18T02:46:33.209Z,13.20
2023-05-18T02:49:00.221Z,13.20
2023-05-18T02:51:27.139Z,13.20
2023-05-18T02:53:54.070Z,13.20
2023-05-18T02:56:20.960Z,13.20
2023-05-18T02:58:47.908Z,13.20
2023-05-18T03:01:14.927Z,13.20
2023-05-18T03:03:42.505Z,13.10
2023-05-18T03:06:10.184Z,13.10
2023-05-18T03:08:41.173Z,13.00
2023-05-18T03:11:08.092Z,13.00
2023-05-18T03:13:35.040Z,13.00
2023-05-18T03:16:01.952Z,13.00
2023-05-18T03:18:28.847Z,13.00
2023-05-18T03:20:56.327Z,13.00
2023-05-18T03:23:23.299Z,13.00
2023-05-18T03:25:53.832Z,12.90
2023-05-18T03:28:21.659Z,12.90
2023-05-18T03:30:48.855Z,12.90
2023-05-18T03:33:15.831Z,12.90
2023-05-18T03:35:42.782Z,13.00
2023-05-18T03:38:09.816Z,13.00
2023-05-18T03:40:36.803Z,13.00
2023-05-18T03:43:03.776Z,13.00
2023-05-18T03:45:31.134Z,13.00
2023-05-18T03:47:58.252Z,13.00
2023-05-18T03:50:25.354Z,13.00
2023-05-18T03:52:53.341Z,13.00
2023-05-18T03:55:21.596Z,13.00
2023-05-18T03:57:49.070Z,13.00
2023-05-18T04:00:16.521Z,13.00
2023-05-18T04:02:43.591Z,13.00
2023-05-18T04:05:10.601Z,13.00
2023-05-18T04:07:44.078Z,13.00
2023-05-18T04:10:12.197Z,13.00
2023-05-18T04:12:39.682Z,13.00
2023-05-18T04:15:07.266Z,13.00
2023-05-18T04:17:35.716Z,13.00
2023-05-18T04:20:11.701Z,13.00
2023-05-18T04:22:49.296Z,13.00
2023-05-18T04:25:16.948Z,12.90
2023-05-18T04:27:50.522Z,12.90
2023-05-18T04:30:19.077Z,13.00
2023-05-18T04:32:46.134Z,13.00
2023-05-18T04:35:13.138Z,13.00
2023-05-18T04:37:43.304Z,13.00
2023-05-18T04:40:14.225Z,13.00
2023-05-18T04:42:48.848Z,13.00
2023-05-18T04:45:17.993Z,12.90
2023-05-18T04:47:46.957Z,12.90
2023-05-18T04:50:16.103Z,12.90
2023-05-18T04:52:49.101Z,12.80
2023-05-18T04:55:28.685Z,12.90
2023-05-18T04:57:57.026Z,12.90
2023-05-18T05:00:26.482Z,12.90
2023-05-18T05:02:53.897Z,12.80
2023-05-18T05:05:22.013Z,12.90
2023-05-18T05:07:52.815Z,12.80
2023-05-18T05:10:20.981Z,12.90
2023-05-18T05:12:49.596Z,12.80
2023-05-18T05:15:17.885Z,12.80
2023-05-18T05:17:46.388Z,12.90
2023-05-18T05:20:13.390Z,13.00
2023-05-18T05:22:40.393Z,13.00
2023-05-18T05:25:07.589Z,13.00
2023-05-18T05:27:34.627Z,13.00
2023-05-18T05:30:01.570Z,13.00
2023-05-18T05:32:28.595Z,13.10
2023-05-18T05:34:56.040Z,13.10
2023-05-18T05:37:22.941Z,13.10
2023-05-18T05:39:49.859Z,13.10
2023-05-18T05:42:16.815Z,13.20
2023-05-18T05:44:43.820Z,13.20
2023-05-18T05:47:10.882Z,13.20
2023-05-18T05:49:37.975Z,13.30
2023-05-18T05:52:05.488Z,13.20
2023-05-18T05:54:32.415Z,13.30
2023-05-18T05:56:59.407Z,13.30
2023-05-18T05:59:26.466Z,13.30
2023-05-18T06:01:53.505Z,13.30
2023-05-18T06:04:20.838Z,13.30
2023-05-18T06:06:48.626Z,13.40
2023-05-18T06:09:16.166Z,13.40
2023-05-18T06:11:43.535Z,13.40
2023-05-18T06:14:10.491Z,13.30
2023-05-18T06:16:37.768Z,13.30
2023-05-18T06:19:04.862Z,13.30
2023-05-18T06:21:32.070Z,13.30
2023-05-18T06:23:59.475Z,13.30
2023-05-18T06:26:26.403Z,13.30
2023-05-18T06:28:53.362Z,13.30
2023-05-18T06:31:20.379Z,13.30
2023-05-18T06:33:47.841Z,13.30
2023-05-18T06:36:16.130Z,13.40
2023-05-18T06:38:43.090Z,13.40
2023-05-18T06:41:10.086Z,13.40
2023-05-18T06:43:37.017Z,13.40
2023-05-18T06:46:03.985Z,13.50
2023-05-18T06:48:31.078Z,13.50
2023-05-18T06:50:57.986Z,13.50
2023-05-18T06:53:24.972Z,13.50
2023-05-18T06:55:51.854Z,13.50
2023-05-18T06:58:18.800Z,13.50
2023-05-18T07:00:45.850Z,13.50
2023-05-18T07:03:12.841Z,13.60
2023-05-18T07:05:39.983Z,13.60
2023-05-18T07:08:07.473Z,13.60
2023-05-18T07:10:35.898Z,13.60
2023-05-18T07:13:02.828Z,13.60
2023-05-18T07:15:30.178Z,13.70
2023-05-18T07:17:57.534Z,13.70
2023-05-18T07:20:26.340Z,13.70
2023-05-18T07:22:55.394Z,13.70
2023-05-18T07:25:23.409Z,13.70
2023-05-18T07:27:52.281Z,13.70
2023-05-18T07:30:19.336Z,13.70
2023-05-18T07:32:46.409Z,13.80
2023-05-18T07:35:13.615Z,13.80
2023-05-18T07:37:40.548Z,13.80
2023-05-18T07:40:09.957Z,13.90
2023-05-18T07:42:38.417Z,13.80
2023-05-18T07:45:06.038Z,13.80
2023-05-18T07:47:33.179Z,13.80
2023-05-18T07:50:00.752Z,13.80
2023-05-18T07:52:27.705Z,13.80
2023-05-18T07:54:57.332Z,13.80
2023-05-18T07:57:24.825Z,13.70
2023-05-18T07:59:52.086Z,13.80
2023-05-18T08:02:20.116Z,13.80
2023-05-18T08:04:48.204Z,13.80
2023-05-18T08:07:15.215Z,13.90
2023-05-18T08:09:42.201Z,13.90
2023-05-18T08:12:09.274Z,13.90
2023-05-18T08:14:36.413Z,13.90
2023-05-18T08:17:04.953Z,14.00
2023-05-18T08:19:32.103Z,14.00
2023-05-18T08:21:59.138Z,14.00
2023-05-18T08:24:26.096Z,14.00
2023-05-18T08:26:53.305Z,13.90
2023-05-18T08:29:20.405Z,14.00
2023-05-18T08:31:49.321Z,14.00
2023-05-18T08:34:16.740Z,14.00
2023-05-18T08:36:45.919Z,14.10
2023-05-18T08:39:13.151Z,14.10
2023-05-18T08:42:13.711Z,14.20
2023-05-18T08:44:55.223Z,14.30
2023-05-18T08:47:26.396Z,14.30
2023-05-18T08:49:57.026Z,14.20
2023-05-18T08:52:28.933Z,14.30
2023-05-18T08:55:00.307Z,14.40
2023-05-18T08:57:29.806Z,14.40
2023-05-18T08:59:58.224Z,14.50
2023-05-18T09:02:25.958Z,14.50
2023-05-18T09:04:56.136Z,14.70
2023-05-18T09:07:24.032Z,14.80
2023-05-18T09:09:52.010Z,14.80
2023-05-18T09:12:24.466Z,14.90
2023-05-18T09:14:52.693Z,14.90
2023-05-18T09:17:19.740Z,15.00
2023-05-18T09:19:46.788Z,15.00
2023-05-18T09:22:15.272Z,15.00
2023-05-18T09:24:42.417Z,14.90
2023-05-18T09:27:09.382Z,15.00
2023-05-18T09:29:36.268Z,15.10
2023-05-18T09:32:10.967Z,15.00
2023-05-18T09:34:42.399Z,15.10
2023-05-18T09:37:09.920Z,15.20
2023-05-18T09:39:36.874Z,15.30
2023-05-18T09:42:04.916Z,15.30
2023-05-18T09:44:34.079Z,15.40
2023-05-18T09:47:01.931Z,15.40
2023-05-18T09:49:32.066Z,15.50
2023-05-18T09:52:01.773Z,15.50
2023-05-18T09:54:29.027Z,15.50
2023-05-18T09:57:09.629Z,15.60
2023-05-18T09:59:37.669Z,15.60
2023-05-18T10:02:12.216Z,15.80
2023-05-18T10:04:43.435Z,15.80
2023-05-18T10:07:16.038Z,15.90
2023-05-18T10:09:44.964Z,16.00
2023-05-18T10:12:16.649Z,16.10
2023-05-18T10:14:45.539Z,16.00
2023-05-18T10:17:17.660Z,16.00
2023-05-18T10:19:46.031Z,16.10
2023-05-18T10:22:16.177Z,16.20
2023-05-18T10:24:46.581Z,16.20
2023-05-18T10:27:16.585Z,16.20
2023-05-18T10:29:44.815Z,16.30
2023-05-18T10:32:13.183Z,16.10
2023-05-18T10:34:41.977Z,16.10
2023-05-18T10:37:11.907Z,16.20
2023-05-18T10:39:45.271Z,16.20
2023-05-18T10:42:14.124Z,16.10
2023-05-18T10:44:41.109Z,16.00
2023-05-18T10:47:11.625Z,15.90
2023-05-18T10:49:40.401Z,15.90
2023-05-18T10:52:08.671Z,15.80
2023-05-18T10:54:36.664Z,15.70
2023-05-18T10:57:03.839Z,15.60
2023-05-18T10:59:30.848Z,15.60
2023-05-18T11:01:58.521Z,15.60
2023-05-18T11:04:30.037Z,15.60
2023-05-18T11:07:00.820Z,15.60
2023-05-18T11:09:29.781Z,15.60
2023-05-18T11:12:00.342Z,15.60
2023-05-18T11:14:28.221Z,15.50
2023-05-18T11:17:15.074Z,15.50
2023-05-18T11:20:12.828Z,15.50
2023-05-18T11:22:45.549Z,15.60
2023-05-18T11:25:24.365Z,15.60
2023-05-18T11:28:04.792Z,15.60
2023-05-18T11:30:46.950Z,15.50
2023-05-18T11:33:32.460Z,15.40
2023-05-18T11:36:07.548Z,15.40
2023-05-18T11:38:54.668Z,15.50
2023-05-18T11:41:47.060Z,15.70
2023-05-18T11:44:17.430Z,15.70
2023-05-18T11:46:56.822Z,15.70
2023-05-18T11:49:45.292Z,15.70
2023-05-18T11:52:21.830Z,15.80
2023-05-18T11:54:55.656Z,15.90
2023-05-18T11:57:29.905Z,15.90
2023-05-18T11:59:59.048Z,15.90
2023-05-18T12:02:28.462Z,15.90
2023-05-18T12:04:58.623Z,15.90
2023-05-18T12:07:26.424Z,16.00
2023-05-18T12:09:53.380Z,16.10
2023-05-18T12:12:20.510Z,15.90
2023-05-18T12:14:57.474Z,15.90
2023-05-18T12:17:37.591Z,16.00
2023-05-18T12:20:04.977Z,16.10
2023-05-18T12:22:31.902Z,16.10
2023-05-18T12:24:58.780Z,16.10
2023-05-18T12:27:26.661Z,16.10
2023-05-18T12:29:54.240Z,16.20
2023-05-18T12:32:21.214Z,16.20
2023-05-18T12:34:48.196Z,16.20
2023-05-18T12:37:15.864Z,16.10
2023-05-18T12:39:42.856Z,16.10
2023-05-18T12:42:15.296Z,16.10
2023-05-18T12:44:45.961Z,16.10
2023-05-18T12:47:13.829Z,16.20
2023-05-18T12:49:42.229Z,16.20
2023-05-18T12:52:10.535Z,16.10
2023-05-18T12:54:39.233Z,16.20
2023-05-18T12:57:07.751Z,16.20
2023-05-18T12:59:34.722Z,16.20
2023-05-18T13:02:01.856Z,16.30
2023-05-18T13:04:38.297Z,16.30
2023-05-18T13:07:05.281Z,16.30
2023-05-18T13:09:32.247Z,16.30
2023-05-18T13:12:07.282Z,16.40
2023-05-18T13:14:38.455Z,16.50
2023-05-18T13:17:05.683Z,16.70
2023-05-18T13:19:35.169Z,16.80
2023-05-18T13:22:02.065Z,16.80
2023-05-18T13:24:29.052Z,16.90
2023-05-18T13:26:55.954Z,17.00
2023-05-18T13:29:22.888Z,16.90
2023-05-18T13:31:49.818Z,16.80
2023-05-18T13:34:16.752Z,16.80
2023-05-18T13:36:43.728Z,16.80
2023-05-18T13:39:10.653Z,16.80
2023-05-18T13:41:37.612Z,16.90
2023-05-18T13:44:04.636Z,17.00
2023-05-18T13:46:32.032Z,17.00
2023-05-18T13:48:58.966Z,17.00
2023-05-18T13:51:25.834Z,16.80
2023-05-18T13:53:52.774Z,16.60
2023-05-18T13:56:19.796Z,16.60
2023-05-18T13:58:47.442Z,16.50
2023-05-18T14:01:14.471Z,16.40
2023-05-18T14:03:41.471Z,16.20
2023-05-18T14:06:08.895Z,16.10
2023-05-18T14:08:35.835Z,16.00
2023-05-18T14:11:02.751Z,16.10
2023-05-18T14:13:29.662Z,16.10
2023-05-18T14:15:56.655Z,16.20
2023-05-18T14:18:23.565Z,16.10
2023-05-18T14:20:50.703Z,16.20
2023-05-18T14:23:17.596Z,16.10
2023-05-18T14:25:45.979Z,16.20
2023-05-18T14:28:13.582Z,16.30
2023-05-18T14:30:40.691Z,16.40
2023-05-18T14:33:07.691Z,16.40
2023-05-18T14:35:34.821Z,16.50
2023-05-18T14:38:03.015Z,16.50
2023-05-18T14:40:30.121Z,16.40
2023-05-18T14:42:57.220Z,16.40
2023-05-18T14:45:24.314Z,16.30
2023-05-18T14:47:51.377Z,16.20
2023-05-18T14:50:18.429Z,16.20
2023-05-18T14:52:45.388Z,16.20
2023-05-18T14:55:12.316Z,16.20
2023-05-18T14:57:39.314Z,16.10
2023-05-18T15:00:07.188Z,16.10
2023-05-18T15:02:34.197Z,16.10
2023-05-18T15:05:01.219Z,16.20
2023-05-18T15:07:28.165Z,16.20
2023-05-18T15:09:55.530Z,16.20
2023-05-18T15:12:23.445Z,16.10
2023-05-18T15:14:50.801Z,16.10
2023-05-18T15:17:18.122Z,16.10
2023-05-18T15:19:45.126Z,16.10
2023-05-18T15:22:12.069Z,15.90
2023-05-18T15:24:39.082Z,15.90
2023-05-18T15:27:06.575Z,15.70
2023-05-18T15:29:33.599Z,15.60
2023-05-18T15:32:00.612Z,15.50
2023-05-18T15:34:27.687Z,15.50
2023-05-18T15:36:54.640Z,15.50
2023-05-18T15:39:21.658Z,15.50
2023-05-18T15:41:48.987Z,15.50
2023-05-18T15:44:16.144Z,15.50
2023-05-18T15:46:43.038Z,15.50
2023-05-18T15:49:11.101Z,15.40
2023-05-18T15:51:38.117Z,15.40
2023-05-18T15:54:05.108Z,15.30
2023-05-18T15:56:32.388Z,15.20
2023-05-18T15:58:59.292Z,15.20
2023-05-18T16:01:26.262Z,15.20
2023-05-18T16:03:53.288Z,15.20
2023-05-18T16:06:20.285Z,15.20
2023-05-18T16:08:47.272Z,15.20
2023-05-18T16:11:14.228Z,15.20
2023-05-18T16:13:41.142Z,15.20
2023-05-18T16:16:10.346Z,15.20
2023-05-18T16:18:37.576Z,15.20
2023-05-18T16:21:04.707Z,15.10
2023-05-18T16:23:31.644Z,15.10
2023-05-18T16:25:59.949Z,15.10
2023-05-18T16:28:26.934Z,15.10
2023-05-18T16:30:53.986Z,15.10
2023-05-18T16:33:20.892Z,15.10
2023-05-18T16:35:47.819Z,15.10
2023-05-18T16:38:14.808Z,15.10
2023-05-18T16:40:41.676Z,15.20
2023-05-18T16:43:09.170Z,15.20
2023-05-18T16:45:36.192Z,15.20
2023-05-18T16:48:03.916Z,15.20
2023-05-18T16:50:31.764Z,15.20
2023-05-18T16:52:58.922Z,15.20
2023-05-18T16:55:25.945Z,15.20
2023-05-18T16:57:53.027Z,15.20
2023-05-18T17:00:20.585Z,15.20
2023-05-18T17:02:47.985Z,15.20
2023-05-18T17:05:21.765Z,15.20
2023-05-18T17:07:50.109Z,15.20
2023-05-18T17:10:17.578Z,15.20
2023-05-18T17:12:45.554Z,15.20
2023-05-18T17:15:16.456Z,15.20
2023-05-18T17:17:45.118Z,15.10
2023-05-18T17:20:12.269Z,15.10
2023-05-18T17:22:39.249Z,15.10
2023-05-18T17:25:06.647Z,15.10
2023-05-18T17:27:33.870Z,15.10
2023-05-18T17:30:00.985Z,15.10
2023-05-18T17:32:28.010Z,15.10
2023-05-18T17:34:54.991Z,15.10
2023-05-18T17:37:22.023Z,15.10
2023-05-18T17:39:49.035Z,15.10
2023-05-18T17:42:16.214Z,15.00
2023-05-18T17:44:44.602Z,14.90
2023-05-18T17:47:12.675Z,14.90
2023-05-18T17:49:39.688Z,14.90
2023-05-18T17:52:06.937Z,14.80
2023-05-18T17:54:33.849Z,14.80
2023-05-18T17:57:01.007Z,14.80
2023-05-18T17:59:28.086Z,14.80
2023-05-18T18:01:55.395Z,14.80
2023-05-18T18:04:22.555Z,14.70
2023-05-18T18:06:50.102Z,14.60
2023-05-18T18:09:17.078Z,14.60
2023-05-18T18:11:44.005Z,14.50
2023-05-18T18:14:15.701Z,14.60
2023-05-18T18:16:42.949Z,14.50
2023-05-18T18:19:10.436Z,14.50
2023-05-18T18:21:37.500Z,14.40
2023-05-18T18:24:05.003Z,14.50
2023-05-18T18:26:32.664Z,14.50
2023-05-18T18:28:59.901Z,14.50
2023-05-18T18:31:27.205Z,14.60
2023-05-18T18:33:54.157Z,14.50
2023-05-18T18:36:21.613Z,14.60
2023-05-18T18:38:48.702Z,14.60
2023-05-18T18:41:17.453Z,14.60
2023-05-18T18:43:45.546Z,14.60
2023-05-18T18:46:12.626Z,14.50
2023-05-18T18:48:40.063Z,14.50
2023-05-18T18:54:59.050Z,14.50
2023-05-18T18:57:26.319Z,14.50
2023-05-18T18:59:53.630Z,14.40
2023-05-18T19:02:21.350Z,14.40
2023-05-18T19:04:48.568Z,14.40
2023-05-18T19:07:15.616Z,14.40
2023-05-18T19:09:42.576Z,14.40
2023-05-18T19:12:09.956Z,14.40
2023-05-18T19:14:37.176Z,14.40
2023-05-18T19:17:04.333Z,14.40
2023-05-18T19:19:32.751Z,14.30
2023-05-18T19:21:59.731Z,14.40
2023-05-18T19:24:27.073Z,14.40
2023-05-18T19:26:54.042Z,14.40
2023-05-18T19:29:21.472Z,14.40
2023-05-18T19:31:48.465Z,14.40
2023-05-18T19:34:15.437Z,14.40
2023-05-18T19:36:43.131Z,14.40
2023-05-18T19:39:10.957Z,14.40
2023-05-18T19:41:38.885Z,14.40
2023-05-18T19:44:05.777Z,14.40
2023-05-18T19:46:32.862Z,14.40
2023-05-18T19:48:59.850Z,14.40
2023-05-18T19:51:26.801Z,14.40
2023-05-18T19:53:53.732Z,14.40
2023-05-18T19:56:22.430Z,14.40
2023-05-18T19:58:49.800Z,14.40
2023-05-18T20:01:18.544Z,14.40
2023-05-18T20:03:47.515Z,14.40
2023-05-18T20:06:14.672Z,14.40
2023-05-18T20:08:42.823Z,14.40
2023-05-18T20:11:10.431Z,14.40
2023-05-18T20:13:37.475Z,14.40
2023-05-18T20:16:05.808Z,14.40
2023-05-18T20:18:34.993Z,14.30
2023-05-18T20:21:02.338Z,14.30
2023-05-18T20:23:29.552Z,14.20
2023-05-18T20:25:56.727Z,14.30
2023-05-18T20:28:23.682Z,14.30
2023-05-18T20:30:50.896Z,14.30
2023-05-18T20:33:17.801Z,14.40
2023-05-18T20:35:45.372Z,14.30
2023-05-18T20:38:12.688Z,14.40
2023-05-18T20:40:39.850Z,14.40
2023-05-18T20:43:10.068Z,14.40
2023-05-18T20:45:37.025Z,14.40
2023-05-18T20:48:04.766Z,14.40
2023-05-18T20:50:33.648Z,14.40
2023-05-18T20:53:01.291Z,14.40
2023-05-18T20:55:29.099Z,14.40
2023-05-18T20:57:56.045Z,14.40
2023-05-18T21:00:23.020Z,14.40
2023-05-18T21:02:50.015Z,14.40
2023-05-18T21:05:17.010Z,14.30
2023-05-18T21:07:44.070Z,14.30
2023-05-18T21:10:11.806Z,14.20
2023-05-18T21:12:38.945Z,14.30
2023-05-18T21:15:07.012Z,14.20
2023-05-18T21:17:34.090Z,14.20
2023-05-18T21:20:01.110Z,14.20
2023-05-18T21:22:28.272Z,14.20
2023-05-18T21:24:55.165Z,14.20
2023-05-18T21:27:22.065Z,14.10
2023-05-18T21:29:48.974Z,14.10
2023-05-18T21:32:16.044Z,14.10
2023-05-18T21:34:43.785Z,14.00
2023-05-18T21:37:11.011Z,14.00
2023-05-18T21:39:38.013Z,13.90
2023-05-18T21:42:05.173Z,14.00
2023-05-18T21:44:32.515Z,14.00
2023-05-18T21:46:59.462Z,13.90
2023-05-18T21:49:26.431Z,13.90
2023-05-18T21:51:53.448Z,13.90
2023-05-18T21:54:20.347Z,13.80
2023-05-18T21:56:47.360Z,13.80
2023-05-18T21:59:14.260Z,13.80
2023-05-18T22:01:41.367Z,13.80
2023-05-18T22:04:08.385Z,13.80
2023-05-18T22:06:35.787Z,13.80
2023-05-18T22:09:02.732Z,13.80
2023-05-18T22:11:29.699Z,13.90
2023-05-18T22:13:56.667Z,13.90
2023-05-18T22:16:23.653Z,13.80
2023-05-18T22:18:50.662Z,13.90
2023-05-18T22:21:17.598Z,13.80
2023-05-18T22:23:44.495Z,13.80
2023-05-18T22:26:12.309Z,13.80
2023-05-18T22:28:39.254Z,13.70
2023-05-18T22:31:06.615Z,13.80
2023-05-18T22:33:33.614Z,13.70
2023-05-18T22:36:00.637Z,13.80
2023-05-18T22:38:27.853Z,13.70
2023-05-18T22:40:54.790Z,13.70
2023-05-18T22:43:22.276Z,13.70
2023-05-18T22:45:49.832Z,13.70
2023-05-18T22:48:16.745Z,13.60
2023-05-18T22:50:43.757Z,13.60
2023-05-18T22:53:10.663Z,13.60
2023-05-18T22:55:37.661Z,13.60
2023-05-18T22:58:04.722Z,13.60
2023-05-18T23:00:31.830Z,13.60
2023-05-18T23:02:59.227Z,13.60
2023-05-18T23:05:27.762Z,13.60
2023-05-18T23:07:57.834Z,13.60
2023-05-18T23:10:26.568Z,13.60
2023-05-18T23:12:55.771Z,13.50
2023-05-18T23:15:23.271Z,13.60
2023-05-18T23:17:50.501Z,13.50
2023-05-18T23:20:17.412Z,13.50
2023-05-18T23:22:44.956Z,13.50
2023-05-18T23:25:12.382Z,13.50
2023-05-18T23:27:39.328Z,13.60
2023-05-18T23:30:06.857Z,13.60
2023-05-18T23:32:34.918Z,13.60
2023-05-18T23:35:04.435Z,13.50
2023-05-18T23:37:33.017Z,13.50
2023-05-18T23:40:03.997Z,13.40
2023-05-18T23:42:31.331Z,13.40
2023-05-18T23:44:58.551Z,13.40
2023-05-18T23:47:25.834Z,13.30
2023-05-18T23:49:53.096Z,13.20
2023-05-18T23:52:23.155Z,13.20
2023-05-18T23:54:53.483Z,13.20
2023-05-18T23:57:21.080Z,13.20
2023-05-18T23:59:49.122Z,13.30
